Jean Anne — WDC3786 — position and weather

sailwx.info

Track history (hours):
 
Tides and Currents Weather Stations Pressure Air Temp Water Temp Dewpoint Dewpoint Depression Visibility Wind Speed Wind Dir Waves Ship Positions

Jean Anne

More information available from US FCC via Universal Licensing System and Coast Guard Vessel Documentation Center.

Last reported at 2014-Aug-21 22:22 UTC. Time now 2014-Aug-23 13:27 UTC.
Position N 30°21' W 122°53'.

Type: Cargo ship. MMSI: 367003380.

Date/timePositionNaut miles runAvg speedWind from/ knotsBaromVisibWave heightAir tempDewpointWater temp
2014-Aug-21 22:22N 30°21' W 122°53'1518.7
2014-Aug-21 21:33N 30°23' W 122°35'2518.6
2014-Aug-21 20:11N 30°26' W 122°06'8918.8
2014-Aug-21 15:26N 30°43' W 120°24'2318.4
2014-Aug-21 14:11N 30°48' W 119°58'6417.4
2014-Aug-21 10:31N 31°01' W 118°45'1615.5
2014-Aug-21 09:29N 31°10' W 118°29'1516.4
2014-Aug-21 08:33N 31°22' W 118°19'1616.1
2014-Aug-21 07:33N 31°35' W 118°08'1616.0
2014-Aug-21 06:32N 31°48' W 117°57'1715.8
2014-Aug-21 05:27N 32°02' W 117°45'1315.1
2014-Aug-21 04:33N 32°13' W 117°35'1515.1
2014-Aug-21 03:33N 32°25' W 117°25'1414.4
2014-Aug-21 02:33N 32°37' W 117°15'7 6.7
2014-Aug-21 01:32N 32°41' W 117°08'2 0.1
2014-Aug-19 21:30N 32°39' W 117°07'6 6.2
2014-Aug-19 20:34N 32°41' W 117°14'8 7.8
2014-Aug-19 19:33N 32°34' W 117°17'1615.9
2014-Aug-19 18:33N 32°21' W 117°28'1615.6
2014-Aug-19 17:34N 32°08' W 117°39'1716.7
2014-Aug-19 16:33N 31°55' W 117°51'2019.8
2014-Aug-19 15:34N 31°38' W 118°03'1919.3
2014-Aug-19 14:34N 31°23' W 118°17'2319.8
2014-Aug-19 13:25N 31°05' W 118°33'1819.6
2014-Aug-19 12:31N 30°60' W 118°53'4120.3
2014-Aug-19 10:29N 30°51' W 119°40'1819.7
2014-Aug-19 09:33N 30°47' W 120°01'2019.6
2014-Aug-19 08:33N 30°43' W 120°23'2019.5
2014-Aug-19 07:33N 30°39' W 120°45'3919.5
2014-Aug-19 05:33N 30°31' W 121°30'2719.8
2014-Aug-19 04:12N 30°27' W 122°00'1919.8
2014-Aug-19 03:13N 30°24' W 122°23'11819.5
2014-Aug-18 21:10N 30°07' W 124°38'7119.5
2014-Aug-18 17:32N 29°56' W 125°59'2819.4
2014-Aug-18 16:05N 29°51' W 126°31'18618.5
2014-Aug-18 06:00N 29°12' W 130°00'70219.5 040 / 131020.510.8 1.021.016.7
2014-Aug-16 18:00N 26°18' W 142°48'22819.0 070 / 241019.210.8 1.522.819.4
2014-Aug-16 06:00N 25°06' W 146°48'12220.3 050 / 191018.010.8 1.524.221.0
2014-Aug-16 00:00N 24°24' W 148°54'   070 / 191018.610.8 1.026.5
Track history (hours):
 
Tides and Currents Weather Stations Pressure Air Temp Water Temp Dewpoint Dewpoint Depression Visibility Wind Speed Wind Dir Waves Ship Positions

Jean Anne

More information available from US FCC via Universal Licensing System and Coast Guard Vessel Documentation Center.

Last reported at 2014-Aug-21 22:22 UTC. Time now 2014-Aug-23 13:27 UTC.
Position N 30°21' W 122°53'.

Type: Cargo ship. MMSI: 367003380.

Date/timePositionNaut miles runAvg speedWind from/ knotsBaromVisibWave heightAir tempDewpointWater temp
2014-Aug-21 22:22N 30°21' W 122°53'1518.7
2014-Aug-21 21:33N 30°23' W 122°35'2518.6
2014-Aug-21 20:11N 30°26' W 122°06'8918.8
2014-Aug-21 15:26N 30°43' W 120°24'2318.4
2014-Aug-21 14:11N 30°48' W 119°58'6417.4
2014-Aug-21 10:31N 31°01' W 118°45'1615.5
2014-Aug-21 09:29N 31°10' W 118°29'1516.4
2014-Aug-21 08:33N 31°22' W 118°19'1616.1
2014-Aug-21 07:33N 31°35' W 118°08'1616.0
2014-Aug-21 06:32N 31°48' W 117°57'1715.8
2014-Aug-21 05:27N 32°02' W 117°45'1315.1
2014-Aug-21 04:33N 32°13' W 117°35'1515.1
2014-Aug-21 03:33N 32°25' W 117°25'1414.4
2014-Aug-21 02:33N 32°37' W 117°15'7 6.7
2014-Aug-21 01:32N 32°41' W 117°08'2 0.1
2014-Aug-19 21:30N 32°39' W 117°07'6 6.2
2014-Aug-19 20:34N 32°41' W 117°14'8 7.8
2014-Aug-19 19:33N 32°34' W 117°17'1615.9
2014-Aug-19 18:33N 32°21' W 117°28'1615.6
2014-Aug-19 17:34N 32°08' W 117°39'1716.7
2014-Aug-19 16:33N 31°55' W 117°51'2019.8
2014-Aug-19 15:34N 31°38' W 118°03'1919.3
2014-Aug-19 14:34N 31°23' W 118°17'2319.8
2014-Aug-19 13:25N 31°05' W 118°33'1819.6
2014-Aug-19 12:31N 30°60' W 118°53'4120.3
2014-Aug-19 10:29N 30°51' W 119°40'1819.7
2014-Aug-19 09:33N 30°47' W 120°01'2019.6
2014-Aug-19 08:33N 30°43' W 120°23'2019.5
2014-Aug-19 07:33N 30°39' W 120°45'3919.5
2014-Aug-19 05:33N 30°31' W 121°30'2719.8
2014-Aug-19 04:12N 30°27' W 122°00'1919.8
2014-Aug-19 03:13N 30°24' W 122°23'11819.5
2014-Aug-18 21:10N 30°07' W 124°38'7119.5
2014-Aug-18 17:32N 29°56' W 125°59'2819.4
2014-Aug-18 16:05N 29°51' W 126°31'18618.5
2014-Aug-18 06:00N 29°12' W 130°00'70219.5 040 / 131020.510.8 1.021.016.7
2014-Aug-16 18:00N 26°18' W 142°48'22819.0 070 / 241019.210.8 1.522.819.4
2014-Aug-16 06:00N 25°06' W 146°48'12220.3 050 / 191018.010.8 1.524.221.0
2014-Aug-16 00:00N 24°24' W 148°54'   070 / 191018.610.8 1.026.5

Dump ship's entire track history